Time;durP1;ratioP1;P1;durP2;ratioP2;P2;SDS_P1;SDS_P2;PMS_P1;PMS_P2;Temp;Humidity;BMP_temperature;BMP_pressure;BME280_temperature;BME280_humidity;BME280_pressure;Samples;Min_cycle;Max_cycle;Signal;HPM_P1;HPM_P2
2022/04/01 03:29:48;;;;;;;;;;;;;;;5.94;100.00;97851.72;5068882;23;19926;-81
2022/04/01 03:32:15;;;;;;;;;;;;;;;5.92;100.00;97849.19;4944762;29;19933;-81
2022/04/01 03:34:41;;;;;;;;;;;;;;;5.95;100.00;97856.91;4944078;29;19922;-81
2022/04/01 03:37:06;;;;;;;;;;;;;;;5.98;100.00;97859.41;4944272;29;19919;-81
2022/04/01 03:39:32;;;;;;;;;;;;;;;5.98;100.00;97854.16;4944543;29;20017;-83
2022/04/01 03:41:57;;;;;;;;;;;;;;;5.98;100.00;97855.91;4944164;29;20337;-83
2022/04/01 03:44:25;;;;;;;;;;;;;;;5.97;100.00;97857.69;4942627;29;19919;-85
2022/04/01 03:46:52;;;;;;;;;;;;;;;5.99;100.00;97855.81;4943844;29;19923;-81
2022/04/01 03:49:22;;;;;;;;;;;;;;;6.00;100.00;97852.28;4943405;29;19919;-80
2022/04/01 03:51:48;;;;;;;;;;;;;;;6.02;100.00;97854.81;4944211;29;19940;-86
2022/04/01 03:54:15;;;;;;;;;;;;;;;6.02;100.00;97859.25;4942874;29;19926;-84
2022/04/01 03:56:43;;;;;;;;;;;;;;;5.63;100.00;97869.13;4942669;29;19973;-83
2022/04/01 03:59:09;;;;;;;;;;;;;;;4.06;100.00;97867.34;4941337;29;19918;-84
2022/04/01 04:01:35;;;;;;;;;;;;;;;3.54;100.00;97874.94;4942542;29;19973;-83
2022/04/01 04:04:01;;;;;;;;;;;;;;;3.39;100.00;97872.09;4958837;28;20331;-83
2022/04/01 04:06:26;;;;;;;;;;;;;;;3.24;100.00;97875.41;4944024;28;19919;-85
2022/04/01 04:08:57;;;;;;;;;;;;;;;3.05;100.00;97878.81;4943643;29;19969;-83
2022/04/01 04:11:26;;;;;;;;;;;;;;;3.10;100.00;97876.00;4966430;28;20024;-84
2022/04/01 04:13:52;;;;;;;;;;;;;;;3.22;100.00;97872.84;4964921;28;19922;-86
2022/04/01 04:16:19;;;;;;;;;;;;;;;3.22;100.00;97880.72;4941464;29;19923;-85
2022/04/01 04:18:45;;;;;;;;;;;;;;;3.16;100.00;97880.97;4938969;29;19957;-86
2022/04/01 04:21:11;;;;;;;;;;;;;;;2.91;100.00;97875.94;4943612;29;20002;-86
2022/04/01 04:23:47;;;;;;;;;;;;;;;2.82;100.00;97878.94;4942300;29;20290;-87
2022/04/01 04:26:15;;;;;;;;;;;;;;;2.70;100.00;97883.75;4942130;29;19962;-86
2022/04/01 04:28:44;;;;;;;;;;;;;;;2.67;100.00;97881.25;4950356;28;19937;-86
2022/04/01 04:31:12;;;;;;;;;;;;;;;2.51;100.00;97888.03;4945731;29;19922;-86
2022/04/01 04:33:44;;;;;;;;;;;;;;;2.51;100.00;97883.66;4947032;29;19919;-88
2022/04/01 04:36:10;;;;;;;;;;;;;;;2.39;100.00;97888.53;4947109;29;19922;-88
2022/04/01 04:38:40;;;;;;;;;;;;;;;2.38;100.00;97892.91;4947357;29;20021;-86
2022/04/01 04:41:09;;;;;;;;;;;;;;;2.28;100.00;97891.56;4946479;29;20056;-88
2022/04/01 04:43:38;;;;;;;;;;;;;;;2.21;100.00;97901.41;4945232;29;19919;-88
2022/04/01 04:46:04;;;;;;;;;;;;;;;2.12;100.00;97900.00;4946638;29;19919;-88
2022/04/01 04:48:29;;;;;;;;;;;;;;;2.10;100.00;97908.81;4946764;29;19974;-91
2022/04/01 04:50:58;;;;;;;;;;;;;;;2.08;100.00;97905.41;4946996;29;19918;-87
2022/04/01 07:58:51;;;;;;;;;;;;;;;3.21;88.63;98056.16;5391366;23;19926;-88
2022/04/01 08:01:17;;;;;;;;;;;;;;;3.24;88.31;98053.41;4944428;29;19922;-88
2022/04/01 08:03:44;;;;;;;;;;;;;;;3.24;88.21;98061.25;4945243;29;19922;-87
2022/04/01 08:06:09;;;;;;;;;;;;;;;3.23;87.81;98054.31;4946396;29;20277;-83
2022/04/01 08:08:35;;;;;;;;;;;;;;;3.27;87.62;98061.97;4949024;29;19926;-84
2022/04/01 08:11:00;;;;;;;;;;;;;;;3.28;87.31;98068.06;4946704;29;19966;-84
2022/04/01 08:13:25;;;;;;;;;;;;;;;3.27;87.01;98063.72;4946952;29;19961;-83
2022/04/01 08:15:51;;;;;;;;;;;;;;;3.30;86.75;98071.47;4949054;29;19949;-84
2022/04/01 08:18:16;;;;;;;;;;;;;;;3.30;86.37;98068.84;4949448;29;19918;-85
2022/04/01 08:20:41;;;;;;;;;;;;;;;3.33;85.93;98070.50;4949976;29;19929;-84
2022/04/01 08:23:06;;;;;;;;;;;;;;;3.35;85.61;98071.28;4949681;29;19944;-84
2022/04/01 08:25:32;;;;;;;;;;;;;;;3.37;85.33;98077.31;4947888;28;20369;-88
2022/04/01 08:27:57;;;;;;;;;;;;;;;3.42;85.11;98080.59;4944998;29;20273;-84
2022/04/01 08:30:22;;;;;;;;;;;;;;;3.39;84.76;98075.47;4946016;29;19970;-85
2022/04/01 08:32:48;;;;;;;;;;;;;;;3.41;84.63;98084.13;4945781;29;20013;-85
2022/04/01 08:35:13;;;;;;;;;;;;;;;3.43;84.23;98091.00;4945013;28;19930;-86
2022/04/01 08:37:39;;;;;;;;;;;;;;;3.44;84.15;98089.22;4946232;29;19922;-87
2022/04/01 08:40:05;;;;;;;;;;;;;;;3.53;84.10;98090.63;4949663;28;20631;-84
2022/04/01 08:42:32;;;;;;;;;;;;;;;3.62;86.25;98090.22;4946470;28;19950;-86
2022/04/01 08:44:57;;;;;;;;;;;;;;;3.84;89.83;98089.34;4947641;28;19957;-84
2022/04/01 08:47:23;;;;;;;;;;;;;;;3.80;91.20;98088.63;4945046;28;20370;-86
2022/04/01 08:49:49;;;;;;;;;;;;;;;3.89;92.54;98095.22;4945122;29;19926;-89
2022/04/01 08:52:14;;;;;;;;;;;;;;;3.91;93.87;98089.03;4946184;29;19926;-86
2022/04/01 08:54:39;;;;;;;;;;;;;;;3.88;94.26;98098.75;4947019;29;19997;-88
2022/04/01 08:57:08;;;;;;;;;;;;;;;3.89;94.27;98095.22;4945631;29;19973;-86
2022/04/01 08:59:35;;;;;;;;;;;;;;;3.84;94.06;98103.28;4942577;28;19961;-86
2022/04/01 09:02:07;;;;;;;;;;;;;;;3.85;94.20;98105.00;4946449;29;19923;-88
2022/04/01 09:04:33;;;;;;;;;;;;;;;3.87;93.91;98115.41;4946390;29;20007;-88
2022/04/01 09:07:08;;;;;;;;;;;;;;;3.84;93.71;98107.69;4945161;29;20342;-87
2022/04/01 09:09:34;;;;;;;;;;;;;;;3.85;93.63;98112.03;4945836;29;20382;-87
2022/04/01 09:12:03;;;;;;;;;;;;;;;3.85;93.41;98125.97;4945181;29;19926;-85
2022/04/01 09:14:28;;;;;;;;;;;;;;;3.87;93.26;98131.16;4943326;29;19966;-84
2022/04/01 09:16:53;;;;;;;;;;;;;;;3.86;93.07;98132.03;4959352;28;20385;-88
2022/04/01 09:19:27;;;;;;;;;;;;;;;3.87;93.00;98139.84;4945205;29;20275;-87
2022/04/01 09:21:52;;;;;;;;;;;;;;;3.87;92.94;98134.59;4945788;29;19922;-86
2022/04/01 09:24:18;;;;;;;;;;;;;;;3.87;92.95;98134.59;4946834;29;19979;-87
2022/04/01 09:26:43;;;;;;;;;;;;;;;3.88;92.81;98140.69;4938425;29;20025;-85
2022/04/01 09:29:10;;;;;;;;;;;;;;;3.88;92.60;98135.44;4944708;29;20013;-88
2022/04/01 09:31:36;;;;;;;;;;;;;;;3.91;92.64;98140.56;4946086;29;20363;-86
2022/04/01 09:34:06;;;;;;;;;;;;;;;3.95;92.59;98143.00;4944994;29;20378;-87
2022/04/01 09:36:37;;;;;;;;;;;;;;;3.96;92.50;98144.72;4945335;29;19923;-84
2022/04/01 09:39:07;;;;;;;;;;;;;;;3.98;92.51;98136.78;4944636;29;20452;-85
2022/04/01 09:41:35;;;;;;;;;;;;;;;3.98;92.45;98142.88;4946257;29;19922;-87
2022/04/01 09:44:01;;;;;;;;;;;;;;;4.02;92.49;98146.22;4941427;29;19977;-84
2022/04/01 09:46:27;;;;;;;;;;;;;;;4.03;92.54;98147.06;4944975;29;20386;-85
2022/04/01 09:49:01;;;;;;;;;;;;;;;4.04;92.33;98146.13;4942161;29;19957;-85
2022/04/01 09:51:31;;;;;;;;;;;;;;;4.03;92.40;98153.16;4944209;29;20435;-85
2022/04/01 09:54:02;;;;;;;;;;;;;;;4.06;92.36;98145.16;4958519;28;19923;-85
2022/04/01 09:56:44;;;;;;;;;;;;;;;4.10;92.47;98152.00;4943728;29;20005;-87
2022/04/01 09:59:10;;;;;;;;;;;;;;;4.10;92.46;98151.13;4942808;29;19926;-85
2022/04/01 10:01:36;;;;;;;;;;;;;;;4.09;92.19;98154.69;4942406;29;19950;-86
2022/04/01 10:04:02;;;;;;;;;;;;;;;4.10;92.16;98152.00;4944450;29;19918;-87
2022/04/01 10:06:28;;;;;;;;;;;;;;;4.15;92.11;98160.50;4944657;29;19953;-86
2022/04/01 10:08:54;;;;;;;;;;;;;;;4.14;91.99;98153.56;4945894;28;20333;-86
2022/04/01 10:11:22;;;;;;;;;;;;;;;4.12;91.79;98158.00;4945419;29;20512;-86
2022/04/01 10:13:48;;;;;;;;;;;;;;;4.17;92.02;98160.44;4942719;29;20018;-85
2022/04/01 10:16:13;;;;;;;;;;;;;;;4.17;92.07;98161.28;4943653;29;20034;-86
2022/04/01 10:18:42;;;;;;;;;;;;;;;4.19;91.89;98159.44;4942863;29;20214;-86
2022/04/01 10:21:10;;;;;;;;;;;;;;;4.16;91.76;98161.34;4944892;29;19926;-87
2022/04/01 10:23:38;;;;;;;;;;;;;;;4.21;91.71;98163.78;4943334;29;19923;-87
2022/04/01 10:26:05;;;;;;;;;;;;;;;4.20;91.75;98162.94;4943194;28;19949;-89
2022/04/01 10:28:30;;;;;;;;;;;;;;;4.23;91.84;98160.19;4943533;29;19994;-88
2022/04/01 10:30:57;;;;;;;;;;;;;;;4.22;91.82;98165.50;4944984;28;19923;-85
2022/04/01 10:33:24;;;;;;;;;;;;;;;4.22;91.55;98168.97;4944726;29;19933;-89
2022/04/01 10:35:50;;;;;;;;;;;;;;;4.27;91.51;98171.38;4943895;29;19930;-86
2022/04/01 10:38:19;;;;;;;;;;;;;;;4.27;91.79;98179.25;4943286;29;20262;-89
2022/04/01 10:40:46;;;;;;;;;;;;;;;4.27;91.65;98176.63;4943561;29;20294;-89
2022/04/01 10:43:15;;;;;;;;;;;;;;;4.28;91.68;98173.09;4941087;29;19973;-86
2022/04/01 10:45:41;;;;;;;;;;;;;;;4.29;91.52;98178.28;4945002;28;19997;-89
2022/04/01 10:53:58;;;;;;;;;;;;;;;4.34;91.24;98180.69;4944784;29;20050;-85
2022/04/01 10:56:24;;;;;;;;;;;;;;;4.36;91.21;98181.47;4942861;29;19989;-86
2022/04/01 10:58:58;;;;;;;;;;;;;;;4.39;91.24;98183.09;4942081;29;20020;-86
2022/04/01 11:01:23;;;;;;;;;;;;;;;4.38;91.24;98192.75;4943161;29;20069;-88
2022/04/01 11:03:51;;;;;;;;;;;;;;;4.41;91.09;98189.16;4943178;29;20009;-87
2022/04/01 11:06:23;;;;;;;;;;;;;;;4.37;90.86;98191.03;4942830;29;19923;-87
2022/04/01 11:08:52;;;;;;;;;;;;;;;4.41;91.07;98194.41;4943348;29;20378;-88
2022/04/01 11:11:18;;;;;;;;;;;;;;;4.43;91.00;98198.66;4944012;29;19925;-87
2022/04/01 11:14:00;;;;;;;;;;;;;;;4.42;91.10;98194.34;4943059;29;19919;-88
2022/04/01 11:16:25;;;;;;;;;;;;;;;4.45;91.13;98202.06;4944149;29;20066;-85
2022/04/01 11:19:10;;;;;;;;;;;;;;;4.45;91.01;98204.69;4944001;29;20017;-87
2022/04/01 11:21:35;;;;;;;;;;;;;;;4.49;91.02;98201.00;4944044;28;19927;-85
2022/04/01 11:24:20;;;;;;;;;;;;;;;4.47;90.97;98202.84;4942803;29;20283;-88
2022/04/01 11:26:45;;;;;;;;;;;;;;;4.50;91.05;98207.09;4941764;29;19927;-85
2022/04/01 11:29:18;;;;;;;;;;;;;;;4.49;90.84;98214.13;4942871;29;19926;-87
2022/04/01 11:31:43;;;;;;;;;;;;;;;4.53;91.05;98210.47;4943173;29;19919;-88
2022/04/01 11:34:10;;;;;;;;;;;;;;;4.85;90.55;98210.81;4944025;29;20494;-84
2022/04/01 11:36:36;;;;;;;;;;;;;;;4.66;90.56;98213.41;4944136;28;19923;-84
2022/04/01 11:39:01;;;;;;;;;;;;;;;4.62;90.91;98219.69;4946454;29;20289;-86
2022/04/01 11:41:27;;;;;;;;;;;;;;;4.59;90.82;98216.34;4947889;29;19923;-85
2022/04/01 11:43:52;;;;;;;;;;;;;;;4.61;90.79;98225.00;4946022;29;19927;-85
2022/04/01 11:46:17;;;;;;;;;;;;;;;4.61;90.90;98225.00;4946991;29;19926;-85
2022/04/01 11:48:45;;;;;;;;;;;;;;;4.61;90.82;98225.88;4945144;29;19966;-87
2022/04/01 11:51:15;;;;;;;;;;;;;;;4.62;90.86;98231.97;4946802;28;20374;-86
2022/04/01 11:53:47;;;;;;;;;;;;;;;4.64;90.75;98227.50;4948065;29;20390;-87
2022/04/01 11:56:13;;;;;;;;;;;;;;;4.63;90.79;98226.66;4946338;29;19918;-87
2022/04/01 11:58:47;;;;;;;;;;;;;;;4.69;90.98;98233.38;4945535;28;20297;-87
2022/04/01 12:01:16;;;;;;;;;;;;;;;4.70;90.86;98237.72;4946833;29;19931;-88
2022/04/01 12:03:42;;;;;;;;;;;;;;;4.68;90.68;98229.06;4947580;29;19925;-87
2022/04/01 12:08:52;;;;;;;;;;;;;;;4.69;90.48;98222.88;4947645;29;20438;-85
2022/04/01 12:11:17;;;;;;;;;;;;;;;4.70;90.37;98235.94;4945998;29;19946;-84
2022/04/01 12:13:49;;;;;;;;;;;;;;;4.71;90.24;98240.28;4946270;29;20039;-84
2022/04/01 12:16:15;;;;;;;;;;;;;;;4.73;90.28;98238.44;4945940;29;19918;-87
2022/04/01 12:18:43;;;;;;;;;;;;;;;4.75;90.25;98238.38;4946084;29;20490;-84
2022/04/01 12:21:08;;;;;;;;;;;;;;;4.74;90.17;98236.69;4958971;28;19969;-85
2022/04/01 12:23:35;;;;;;;;;;;;;;;4.77;90.32;98252.28;4947178;29;20386;-87
2022/04/01 12:26:01;;;;;;;;;;;;;;;4.78;90.35;98240.88;4944905;29;19974;-85
2022/04/01 12:28:34;;;;;;;;;;;;;;;4.79;90.18;98241.72;4945424;29;19968;-85
2022/04/01 12:30:59;;;;;;;;;;;;;;;4.80;90.24;98241.63;4946604;29;20316;-84
2022/04/01 12:33:29;;;;;;;;;;;;;;;4.82;90.36;98247.69;4945779;29;20022;-89
2022/04/01 12:35:58;;;;;;;;;;;;;;;4.81;90.04;98245.97;4946938;29;19919;-87
2022/04/01 12:38:23;;;;;;;;;;;;;;;4.83;90.03;98244.13;4946887;29;19923;-88
2022/04/01 12:40:50;;;;;;;;;;;;;;;4.85;90.03;98252.81;4945394;29;19926;-84
2022/04/01 12:43:38;;;;;;;;;;;;;;;4.87;90.03;98255.38;4944342;29;19919;-85
2022/04/01 12:46:29;;;;;;;;;;;;;;;4.85;89.84;98257.19;4938742;29;19926;-86
2022/04/01 12:48:55;;;;;;;;;;;;;;;4.90;90.30;98257.84;4944452;29;19926;-87
2022/04/01 12:51:20;;;;;;;;;;;;;;;5.03;91.89;98264.25;4944587;29;19933;-88
2022/04/01 12:54:00;;;;;;;;;;;;;;;5.33;95.18;98255.06;4945252;29;19923;-88
2022/04/01 12:56:27;;;;;;;;;;;;;;;5.34;96.96;98264.66;4946368;29;19929;-86
2022/04/01 12:58:54;;;;;;;;;;;;;;;5.46;99.09;98266.72;4943404;28;19933;-88
2022/04/01 13:01:27;;;;;;;;;;;;;;;5.42;100.00;98266.00;4946383;28;19933;-86
2022/04/01 13:03:56;;;;;;;;;;;;;;;5.33;100.00;98265.56;4946190;29;19922;-85
2022/04/01 13:06:25;;;;;;;;;;;;;;;5.27;100.00;98266.72;4944463;29;20330;-85
2022/04/01 13:09:03;;;;;;;;;;;;;;;5.15;100.00;98273.34;4960240;28;19923;-86
2022/04/01 13:11:36;;;;;;;;;;;;;;;5.01;100.00;98270.50;4945412;29;20032;-86
2022/04/01 13:14:02;;;;;;;;;;;;;;;4.85;100.00;98281.69;4944322;29;19919;-86
2022/04/01 13:16:37;;;;;;;;;;;;;;;4.68;100.00;98278.94;4946270;29;19929;-86
2022/04/01 13:19:20;;;;;;;;;;;;;;;4.46;99.46;98282.44;4945480;29;19919;-85
2022/04/01 13:21:45;;;;;;;;;;;;;;;4.31;99.25;98278.69;4943555;29;20025;-86
2022/04/01 13:24:11;;;;;;;;;;;;;;;4.19;99.65;98287.91;4946338;29;20367;-86
2022/04/01 13:26:36;;;;;;;;;;;;;;;4.21;100.00;98292.25;4945169;29;19922;-86
2022/04/01 13:29:02;;;;;;;;;;;;;;;4.31;100.00;98285.72;4942990;29;19929;-87
2022/04/01 13:31:27;;;;;;;;;;;;;;;4.39;100.00;98299.38;4945072;28;20325;-86
2022/04/01 13:33:53;;;;;;;;;;;;;;;4.57;100.00;98297.75;4945530;29;20013;-85
2022/04/01 13:36:18;;;;;;;;;;;;;;;4.75;100.00;98295.25;4945756;29;20006;-87
2022/04/01 13:38:43;;;;;;;;;;;;;;;4.91;100.00;98291.91;4945303;29;19919;-87
2022/04/01 13:41:08;;;;;;;;;;;;;;;5.01;100.00;98297.63;4943662;29;19927;-85
2022/04/01 13:43:34;;;;;;;;;;;;;;;5.07;100.00;98293.84;4944413;29;19933;-87
2022/04/01 13:45:59;;;;;;;;;;;;;;;5.11;100.00;98292.81;4945851;29;19922;-84
2022/04/01 13:48:24;;;;;;;;;;;;;;;5.14;100.00;98303.19;4944433;29;19974;-85
2022/04/01 13:50:52;;;;;;;;;;;;;;;5.17;100.00;98297.78;4945429;29;19929;-84
2022/04/01 13:53:18;;;;;;;;;;;;;;;5.21;100.00;98299.34;4944164;29;19974;-89
2022/04/01 13:55:43;;;;;;;;;;;;;;;5.23;100.00;98297.53;4943156;29;19922;-87
2022/04/01 13:58:08;;;;;;;;;;;;;;;5.27;100.00;98301.69;4942788;29;19934;-87
2022/04/01 14:00:34;;;;;;;;;;;;;;;5.27;100.00;98304.31;4944514;29;20913;-88
2022/04/01 14:02:59;;;;;;;;;;;;;;;5.30;100.00;98302.47;4944333;29;20018;-85
2022/04/01 14:05:24;;;;;;;;;;;;;;;5.31;100.00;98306.81;4945435;29;19962;-88
2022/04/01 14:07:50;;;;;;;;;;;;;;;5.35;100.00;98308.41;4945932;29;19973;-86
2022/04/01 14:10:15;;;;;;;;;;;;;;;5.36;100.00;98312.69;4943462;29;20020;-86
2022/04/01 14:12:40;;;;;;;;;;;;;;;5.37;100.00;98311.78;4944466;29;19923;-86
2022/04/01 14:15:06;;;;;;;;;;;;;;;5.37;100.00;98310.00;4943643;29;19923;-87
2022/04/01 14:17:33;;;;;;;;;;;;;;;5.41;100.00;98310.75;4943446;29;20033;-87
2022/04/01 14:20:00;;;;;;;;;;;;;;;5.42;100.00;98317.69;4944975;29;20282;-87
2022/04/01 14:22:25;;;;;;;;;;;;;;;5.68;100.00;98318.25;4942158;29;19923;-89
2022/04/01 14:24:50;;;;;;;;;;;;;;;5.68;100.00;98313.88;4942939;29;19981;-86
2022/04/01 14:27:16;;;;;;;;;;;;;;;5.66;100.00;98313.06;4943528;29;20001;-86
2022/04/01 14:32:25;;;;;;;;;;;;;;;4.50;100.00;98327.75;4944244;29;19994;-85
2022/04/01 14:34:50;;;;;;;;;;;;;;;4.31;100.00;98328.53;4939277;29;20371;-86
2022/04/01 14:37:15;;;;;;;;;;;;;;;4.21;100.00;98315.84;4943620;29;19974;-86
2022/04/01 14:39:41;;;;;;;;;;;;;;;4.14;100.00;98331.81;4940634;29;19966;-85
2022/04/01 14:42:06;;;;;;;;;;;;;;;4.10;100.00;98332.00;4943250;29;19918;-86
2022/04/01 14:44:32;;;;;;;;;;;;;;;3.96;100.00;98329.94;4941504;29;20368;-84
2022/04/01 14:46:57;;;;;;;;;;;;;;;3.88;100.00;98330.22;4942461;29;19946;-84
2022/04/01 14:49:22;;;;;;;;;;;;;;;3.84;100.00;98331.25;4943800;29;19933;-87
2022/04/01 14:51:48;;;;;;;;;;;;;;;3.76;100.00;98339.41;4943806;29;19919;-86
2022/04/01 14:54:15;;;;;;;;;;;;;;;3.75;100.00;98336.84;4944420;29;19977;-85
2022/04/01 14:56:40;;;;;;;;;;;;;;;3.74;100.00;98336.00;4944951;28;19919;-84
2022/04/01 14:59:06;;;;;;;;;;;;;;;3.76;100.00;98349.88;4941649;28;19923;-86
2022/04/01 15:01:32;;;;;;;;;;;;;;;3.90;100.00;98346.75;4944425;29;19958;-88
2022/04/01 15:03:57;;;;;;;;;;;;;;;3.98;100.00;98349.06;4945007;29;20286;-88
2022/04/01 15:06:22;;;;;;;;;;;;;;;4.12;100.00;98353.78;4942244;29;19931;-87
2022/04/01 15:08:48;;;;;;;;;;;;;;;4.05;100.00;98357.53;4943949;29;19919;-86
2022/04/01 15:11:13;;;;;;;;;;;;;;;3.91;100.00;98353.69;4942920;29;19918;-85
2022/04/01 15:13:38;;;;;;;;;;;;;;;3.81;100.00;98357.56;4942051;29;19927;-86
2022/04/01 15:16:04;;;;;;;;;;;;;;;3.80;100.00;98372.44;4943440;29;19926;-87
2022/04/01 15:18:29;;;;;;;;;;;;;;;3.73;100.00;98368.34;4943963;29;19930;-85
2022/04/01 15:20:54;;;;;;;;;;;;;;;3.68;100.00;98375.53;4943093;29;19926;-86
2022/04/01 15:23:19;;;;;;;;;;;;;;;3.69;100.00;98376.41;4938234;29;19923;-84
2022/04/01 15:25:45;;;;;;;;;;;;;;;3.64;100.00;98371.31;4941117;29;19962;-85
2022/04/01 15:28:10;;;;;;;;;;;;;;;3.57;100.00;98380.31;4937622;29;19922;-86
2022/04/01 15:30:35;;;;;;;;;;;;;;;3.52;100.00;98375.25;4939193;29;19926;-86
2022/04/01 15:33:01;;;;;;;;;;;;;;;3.47;100.00;98376.34;4942014;28;20009;-85
2022/04/01 15:35:27;;;;;;;;;;;;;;;3.47;100.00;98379.78;4943189;29;19922;-85
2022/04/01 15:37:55;;;;;;;;;;;;;;;3.42;100.00;98379.97;4941835;29;20013;-87
2022/04/01 15:40:21;;;;;;;;;;;;;;;3.39;100.00;98384.47;4941424;29;19977;-85
2022/04/01 15:42:48;;;;;;;;;;;;;;;3.36;100.00;98395.88;4938165;29;19930;-87
2022/04/01 15:45:13;;;;;;;;;;;;;;;3.36;100.00;98390.66;4941228;29;20392;-86
2022/04/01 15:47:40;;;;;;;;;;;;;;;3.34;99.47;98402.94;4941582;29;19969;-86
2022/04/01 15:50:05;;;;;;;;;;;;;;;3.30;99.25;98406.56;4943779;29;19942;-87
2022/04/01 15:52:32;;;;;;;;;;;;;;;3.28;98.81;98411.00;4942728;29;19922;-86
2022/04/01 15:54:57;;;;;;;;;;;;;;;3.25;98.81;98413.75;4943663;28;19929;-86
2022/04/01 15:57:22;;;;;;;;;;;;;;;3.30;98.59;98410.97;4942727;29;19922;-87
2022/04/01 15:59:47;;;;;;;;;;;;;;;3.25;98.23;98411.97;4941388;29;20425;-87
2022/04/01 16:02:24;;;;;;;;;;;;;;;3.28;97.81;98419.72;4942696;29;19970;-88
2022/04/01 16:04:57;;;;;;;;;;;;;;;3.23;97.31;98415.56;4942810;29;19923;-86
2022/04/01 16:07:26;;;;;;;;;;;;;;;3.17;97.16;98421.84;4941568;28;19945;-87
2022/04/01 16:09:52;;;;;;;;;;;;;;;3.19;96.90;98430.53;4943353;29;19923;-88
2022/04/01 16:12:19;;;;;;;;;;;;;;;3.14;96.68;98426.34;4941403;29;20286;-88
2022/04/01 16:14:48;;;;;;;;;;;;;;;3.17;96.31;98436.72;4940351;29;19966;-86
2022/04/01 16:17:14;;;;;;;;;;;;;;;3.15;96.14;98431.53;4944171;28;19953;-89
2022/04/01 16:19:39;;;;;;;;;;;;;;;3.20;95.94;98442.69;4940782;29;19931;-88
2022/04/01 16:22:07;;;;;;;;;;;;;;;3.14;95.57;98439.44;4942022;29;19926;-87
2022/04/01 16:24:32;;;;;;;;;;;;;;;3.11;95.41;98442.16;4942699;29;19918;-85
2022/04/01 16:26:58;;;;;;;;;;;;;;;3.09;95.00;98448.31;4946648;29;19977;-86
2022/04/01 16:29:23;;;;;;;;;;;;;;;3.11;94.90;98460.47;4944372;29;20009;-85
2022/04/01 16:31:48;;;;;;;;;;;;;;;3.07;94.66;98451.88;4944148;29;19926;-85
2022/04/01 16:34:14;;;;;;;;;;;;;;;3.07;94.35;98465.81;4944483;29;19969;-86
2022/04/01 16:36:39;;;;;;;;;;;;;;;3.04;94.08;98465.06;4945384;29;19996;-85
2022/04/01 16:39:04;;;;;;;;;;;;;;;3.07;94.13;98471.03;4942771;29;19922;-87
2022/04/01 16:41:29;;;;;;;;;;;;;;;3.06;93.83;98476.34;4940599;29;20030;-85
2022/04/01 16:43:55;;;;;;;;;;;;;;;2.99;93.63;98470.44;4941740;29;19923;-88
2022/04/01 16:46:20;;;;;;;;;;;;;;;3.02;93.59;98477.34;4939369;29;19977;-87
2022/04/01 16:48:45;;;;;;;;;;;;;;;3.00;93.49;98476.53;4945620;29;19930;-86
2022/04/01 16:51:10;;;;;;;;;;;;;;;3.03;93.18;98479.94;4941689;29;19929;-87
2022/04/01 16:53:36;;;;;;;;;;;;;;;2.99;92.82;98473.06;4941416;29;20394;-87
2022/04/01 16:56:01;;;;;;;;;;;;;;;3.01;92.61;98479.09;4944490;29;19926;-87
2022/04/01 16:58:26;;;;;;;;;;;;;;;2.95;92.54;98481.06;4944675;28;19930;-87
2022/04/01 17:00:52;;;;;;;;;;;;;;;2.97;92.39;98477.50;4943124;28;19962;-88
2022/04/01 17:03:18;;;;;;;;;;;;;;;2.93;92.06;98478.50;4944059;29;19922;-84
2022/04/01 17:13:55;;;;;;;;;;;;;;;2.89;91.24;98484.75;4943889;29;20669;-86
2022/04/01 17:16:20;;;;;;;;;;;;;;;2.85;91.07;98489.22;4941899;29;19926;-85
2022/04/01 17:18:46;;;;;;;;;;;;;;;2.89;90.98;98496.06;4945105;29;20021;-89
2022/04/01 17:21:11;;;;;;;;;;;;;;;2.94;90.75;98501.16;4945340;29;19934;-86
2022/04/01 17:23:37;;;;;;;;;;;;;;;2.86;90.52;98496.16;4941740;29;19923;-87
2022/04/01 17:26:02;;;;;;;;;;;;;;;2.86;90.40;98498.78;4942843;29;20366;-87
2022/04/01 17:28:27;;;;;;;;;;;;;;;2.82;90.01;98489.31;4943122;29;19923;-85
2022/04/01 17:30:54;;;;;;;;;;;;;;;2.81;89.87;98487.63;4942900;29;20026;-85
2022/04/01 17:33:20;;;;;;;;;;;;;;;2.80;89.70;98491.13;4944022;29;20410;-87
2022/04/01 17:35:48;;;;;;;;;;;;;;;2.86;89.33;98495.31;4944799;29;19926;-84
2022/04/01 17:38:15;;;;;;;;;;;;;;;2.85;89.37;98494.44;4943675;28;19922;-87
2022/04/01 17:40:40;;;;;;;;;;;;;;;2.80;89.10;98505.97;4942926;29;19942;-85
2022/04/01 17:43:07;;;;;;;;;;;;;;;2.83;88.97;98503.25;4942969;29;19931;-88
2022/04/01 17:45:32;;;;;;;;;;;;;;;2.79;88.67;98519.94;4942827;29;19926;-87
2022/04/01 17:47:59;;;;;;;;;;;;;;;2.75;88.70;98523.59;4944271;29;20298;-84
2022/04/01 17:50:28;;;;;;;;;;;;;;;2.79;88.61;98530.41;4959358;28;20426;-86
2022/04/01 17:52:53;;;;;;;;;;;;;;;2.80;88.26;98521.66;4940468;29;19926;-86
2022/04/01 17:55:18;;;;;;;;;;;;;;;2.79;88.01;98530.41;4944452;29;19933;-87
2022/04/01 17:57:44;;;;;;;;;;;;;;;2.73;87.55;98532.31;4944368;29;20497;-88
2022/04/01 18:00:14;;;;;;;;;;;;;;;2.73;87.36;98541.94;4943594;29;19933;-87
2022/04/01 18:02:41;;;;;;;;;;;;;;;2.73;86.97;98545.41;4944174;29;19927;-89
2022/04/01 18:05:07;;;;;;;;;;;;;;;2.72;86.99;98548.06;4942736;29;19929;-84
2022/04/01 18:07:36;;;;;;;;;;;;;;;2.72;86.75;98553.28;4943252;28;19922;-85
2022/04/01 18:10:02;;;;;;;;;;;;;;;2.69;86.58;98556.84;4943379;29;20331;-87
2022/04/01 18:12:29;;;;;;;;;;;;;;;2.68;86.60;98573.47;4941747;29;19922;-85
2022/04/01 18:14:54;;;;;;;;;;;;;;;2.71;86.32;98575.13;4941113;29;20014;-84
2022/04/01 18:17:21;;;;;;;;;;;;;;;2.70;86.03;98573.41;4945016;29;20418;-85
2022/04/01 18:19:47;;;;;;;;;;;;;;;2.66;86.06;98583.09;4942360;29;19932;-84
2022/04/01 18:22:12;;;;;;;;;;;;;;;2.67;85.70;98584.81;4945112;29;19919;-85
2022/04/01 18:27:33;;;;;;;;;;;;;;;2.67;85.49;98592.66;4943931;29;20387;-88
2022/04/01 18:30:00;;;;;;;;;;;;;;;2.64;85.19;98595.38;4943980;29;19929;-87
2022/04/01 18:32:29;;;;;;;;;;;;;;;2.66;85.22;98601.41;4957387;28;19968;-87
2022/04/01 18:34:58;;;;;;;;;;;;;;;2.66;85.18;98604.03;4940571;29;20402;-87
2022/04/01 18:37:25;;;;;;;;;;;;;;;2.73;85.13;98617.81;4942044;29;19923;-88
2022/04/01 18:39:51;;;;;;;;;;;;;;;2.68;85.01;98628.41;4942262;29;20457;-88
2022/04/01 18:42:17;;;;;;;;;;;;;;;2.64;84.65;98611.06;4941702;29;19970;-84
2022/04/01 18:44:43;;;;;;;;;;;;;;;2.68;84.50;98617.94;4940830;29;19930;-82
2022/04/01 18:47:09;;;;;;;;;;;;;;;2.64;84.08;98628.53;4939546;29;19930;-88
2022/04/01 18:49:35;;;;;;;;;;;;;;;2.65;83.79;98630.22;4942084;29;19929;-84
2022/04/01 18:52:00;;;;;;;;;;;;;;;2.66;83.69;98640.63;4943870;29;19923;-83
2022/04/01 18:54:27;;;;;;;;;;;;;;;2.63;83.45;98646.00;4941191;29;19923;-87
2022/04/01 18:56:59;;;;;;;;;;;;;;;2.57;83.37;98635.69;4942897;29;20013;-88
2022/04/01 18:59:25;;;;;;;;;;;;;;;2.58;83.43;98637.38;4941029;28;19922;-84
2022/04/01 19:01:57;;;;;;;;;;;;;;;2.61;83.13;98633.84;4942851;29;19922;-84
2022/04/01 19:04:30;;;;;;;;;;;;;;;2.61;82.92;98626.00;4942576;29;19926;-88
2022/04/01 19:07:04;;;;;;;;;;;;;;;2.63;82.77;98624.19;4942676;29;19923;-84
2022/04/01 19:09:53;;;;;;;;;;;;;;;2.59;82.34;98626.03;4943180;29;19926;-83
2022/04/01 19:12:24;;;;;;;;;;;;;;;2.60;82.16;98648.69;4933220;29;20382;-84
2022/04/01 19:14:52;;;;;;;;;;;;;;;2.60;82.23;98650.44;4939561;29;19933;-83
2022/04/01 19:17:20;;;;;;;;;;;;;;;2.62;82.20;98659.97;4943213;29;19923;-87
2022/04/01 19:19:46;;;;;;;;;;;;;;;2.58;82.09;98653.09;4942252;29;20338;-83
2022/04/01 19:22:14;;;;;;;;;;;;;;;2.58;81.88;98655.69;4937517;29;19927;-84
2022/04/01 19:24:48;;;;;;;;;;;;;;;2.59;81.84;98652.19;4954111;28;20021;-84
2022/04/01 19:27:13;;;;;;;;;;;;;;;2.63;81.69;98659.06;4941821;29;19930;-85
2022/04/01 19:29:38;;;;;;;;;;;;;;;2.67;81.68;98668.53;4938922;29;19923;-88
2022/04/01 19:32:04;;;;;;;;;;;;;;;2.65;81.56;98665.09;4942263;29;19926;-86
2022/04/01 19:34:29;;;;;;;;;;;;;;;2.67;81.22;98673.75;4939692;29;19937;-84
2022/04/01 19:36:55;;;;;;;;;;;;;;;2.67;81.25;98667.69;4942106;29;19919;-87
2022/04/01 19:39:21;;;;;;;;;;;;;;;2.66;81.16;98671.19;4942622;28;20354;-85
2022/04/01 19:41:46;;;;;;;;;;;;;;;2.67;81.19;98672.91;4941066;29;20037;-92
2022/04/01 19:44:11;;;;;;;;;;;;;;;2.68;80.96;98680.72;4939889;29;19945;-85
2022/04/01 19:46:37;;;;;;;;;;;;;;;2.69;80.81;98678.94;4939345;29;20354;-92
2022/04/01 19:49:02;;;;;;;;;;;;;;;2.66;80.52;98682.50;4942491;29;20368;-89